Time;durP1;ratioP1;P1;durP2;ratioP2;P2;SDS_P1;SDS_P2;PMS_P1;PMS_P2;Temp;Humidity;BMP_temperature;BMP_pressure;BME280_temperature;BME280_humidity;BME280_pressure;Samples;Min_cycle;Max_cycle;Signal;HPM_P1;HPM_P2
2021/09/07 00:02:11;;;;;;;8.68;2.67;;;;;;;;;;4995180;28;20025;-78
2021/09/07 00:04:37;;;;;;;8.20;3.17;;;;;;;;;;4995823;28;20029;-78
2021/09/07 00:07:03;;;;;;;10.75;3.28;;;;;;;;;;4992153;28;20065;-77
2021/09/07 00:09:29;;;;;;;9.98;3.58;;;;;;;;;;5001632;28;20045;-78
2021/09/07 00:11:56;;;;;;;9.45;3.67;;;;;;;;;;4988811;28;20063;-78
2021/09/07 00:14:22;;;;;;;10.30;3.25;;;;;;;;;;5003902;28;20376;-78
2021/09/07 00:16:48;;;;;;;11.02;3.38;;;;;;;;;;4989597;28;20144;-78
2021/09/07 00:19:14;;;;;;;9.57;3.72;;;;;;;;;;5017184;28;20033;-78
2021/09/07 00:21:41;;;;;;;11.55;3.67;;;;;;;;;;5012584;28;20061;-79
2021/09/07 00:24:07;;;;;;;10.27;3.03;;;;;;;;;;4993381;28;20704;-76
2021/09/07 00:26:33;;;;;;;10.15;3.70;;;;;;;;;;5001909;28;20601;-77
2021/09/07 00:28:59;;;;;;;10.43;3.42;;;;;;;;;;4996351;28;20038;-77
2021/09/07 00:31:25;;;;;;;10.40;3.30;;;;;;;;;;5002242;28;20096;-77
2021/09/07 00:33:51;;;;;;;10.40;3.83;;;;;;;;;;4994330;28;20799;-77
2021/09/07 00:36:18;;;;;;;10.40;3.10;;;;;;;;;;4999989;28;20503;-77
2021/09/07 00:38:44;;;;;;;7.10;2.95;;;;;;;;;;5000415;28;20025;-77
2021/09/07 00:41:10;;;;;;;9.15;2.97;;;;;;;;;;4996006;28;20040;-77
2021/09/07 00:43:39;;;;;;;9.27;3.47;;;;;;;;;;5000604;28;20037;-78
2021/09/07 00:46:06;;;;;;;9.43;2.83;;;;;;;;;;4996776;28;22269;-78
2021/09/07 00:48:32;;;;;;;10.43;2.85;;;;;;;;;;5000831;28;20488;-78
2021/09/07 00:50:58;;;;;;;9.60;3.35;;;;;;;;;;4998129;28;20040;-78
2021/09/07 00:53:24;;;;;;;9.23;3.00;;;;;;;;;;4998694;28;20045;-77
2021/09/07 00:55:50;;;;;;;7.95;2.70;;;;;;;;;;4997271;28;20032;-78
2021/09/07 00:58:18;;;;;;;9.05;3.10;;;;;;;;;;4999982;28;20025;-77
2021/09/07 01:00:44;;;;;;;10.05;2.97;;;;;;;;;;4999424;28;20036;-77
2021/09/07 01:03:10;;;;;;;8.55;3.10;;;;;;;;;;5013726;28;20033;-78
2021/09/07 01:05:37;;;;;;;8.88;2.55;;;;;;;;;;5012630;28;20029;-78
2021/09/07 01:08:03;;;;;;;8.65;2.85;;;;;;;;;;4996477;28;20908;-78
2021/09/07 01:10:29;;;;;;;11.88;3.25;;;;;;;;;;4989049;28;20064;-78
2021/09/07 01:12:55;;;;;;;11.00;3.65;;;;;;;;;;4992440;28;20037;-78
2021/09/07 01:15:22;;;;;;;8.07;2.75;;;;;;;;;;5000211;28;20034;-78
2021/09/07 01:17:48;;;;;;;8.52;3.38;;;;;;;;;;4997062;28;20193;-78
2021/09/07 01:20:14;;;;;;;10.13;3.58;;;;;;;;;;5002591;28;20026;-78
2021/09/07 01:22:40;;;;;;;9.40;3.28;;;;;;;;;;4999563;28;20064;-77
2021/09/07 01:25:07;;;;;;;9.35;3.17;;;;;;;;;;4996872;28;20800;-77
2021/09/07 01:27:33;;;;;;;8.52;3.10;;;;;;;;;;5000298;28;20641;-77
2021/09/07 01:29:59;;;;;;;8.02;2.55;;;;;;;;;;4998353;28;20053;-77
2021/09/07 01:32:25;;;;;;;9.32;3.20;;;;;;;;;;5004124;28;20057;-77
2021/09/07 01:34:52;;;;;;;8.07;2.72;;;;;;;;;;4998323;28;20022;-76
2021/09/07 01:37:18;;;;;;;6.85;2.70;;;;;;;;;;5002198;28;20513;-77
2021/09/07 01:39:44;;;;;;;8.75;2.72;;;;;;;;;;5016985;28;20030;-76
2021/09/07 01:42:10;;;;;;;11.05;3.13;;;;;;;;;;4998926;28;20412;-79
2021/09/07 01:44:40;;;;;;;11.88;3.40;;;;;;;;;;4998787;28;20366;-78
2021/09/07 01:47:09;;;;;;;7.30;2.83;;;;;;;;;;4995951;28;20353;-78
2021/09/07 01:49:35;;;;;;;6.82;2.70;;;;;;;;;;4996663;28;20132;-79
2021/09/07 01:52:08;;;;;;;10.48;3.15;;;;;;;;;;5001932;28;20044;-78
2021/09/07 01:54:34;;;;;;;7.22;2.80;;;;;;;;;;4997382;28;20091;-78
2021/09/07 01:57:00;;;;;;;8.52;3.08;;;;;;;;;;5000049;28;20029;-77
2021/09/07 01:59:26;;;;;;;9.40;2.60;;;;;;;;;;5013003;28;20029;-76
2021/09/07 02:01:52;;;;;;;6.80;2.85;;;;;;;;;;4994677;28;20033;-77
2021/09/07 02:04:19;;;;;;;9.65;3.28;;;;;;;;;;5002027;28;20039;-77
2021/09/07 02:06:45;;;;;;;8.82;3.20;;;;;;;;;;4998619;28;20029;-77
2021/09/07 02:09:11;;;;;;;8.23;3.10;;;;;;;;;;5003761;28;20049;-78
2021/09/07 02:11:37;;;;;;;9.18;2.90;;;;;;;;;;4994898;28;20044;-78
2021/09/07 02:14:03;;;;;;;8.82;2.97;;;;;;;;;;4999022;28;20032;-77
2021/09/07 02:16:30;;;;;;;7.00;2.83;;;;;;;;;;4997279;28;20451;-77
2021/09/07 02:18:56;;;;;;;8.50;3.30;;;;;;;;;;5009834;28;20028;-77
2021/09/07 02:21:22;;;;;;;9.43;3.25;;;;;;;;;;4996588;28;20025;-78
2021/09/07 02:23:48;;;;;;;10.75;3.00;;;;;;;;;;4994452;28;20564;-79
2021/09/07 02:26:14;;;;;;;8.40;3.00;;;;;;;;;;5000415;28;20084;-79
2021/09/07 02:28:41;;;;;;;8.40;2.83;;;;;;;;;;4998026;28;20079;-77
2021/09/07 02:31:07;;;;;;;8.27;3.03;;;;;;;;;;4994570;28;20115;-77
2021/09/07 02:33:33;;;;;;;10.95;3.45;;;;;;;;;;4998300;28;20125;-77
2021/09/07 02:35:59;;;;;;;12.48;3.08;;;;;;;;;;4994394;28;20029;-77
2021/09/07 02:38:25;;;;;;;9.77;3.30;;;;;;;;;;4996237;28;20037;-77
2021/09/07 02:40:57;;;;;;;6.40;2.55;;;;;;;;;;4997057;28;20056;-79
2021/09/07 02:43:23;;;;;;;7.72;2.63;;;;;;;;;;5012933;28;20029;-79
2021/09/07 02:45:49;;;;;;;8.40;2.97;;;;;;;;;;5004468;28;20025;-78
2021/09/07 02:48:15;;;;;;;8.40;2.75;;;;;;;;;;4999486;28;20120;-79
2021/09/07 02:50:41;;;;;;;7.57;2.70;;;;;;;;;;4996254;28;20029;-77
2021/09/07 02:53:08;;;;;;;8.90;2.60;;;;;;;;;;4991127;28;20017;-78
2021/09/07 02:55:34;;;;;;;10.82;3.00;;;;;;;;;;4998108;28;20022;-77
2021/09/07 02:58:00;;;;;;;7.82;2.40;;;;;;;;;;4994514;28;20036;-77
2021/09/07 03:00:26;;;;;;;8.20;2.50;;;;;;;;;;4993915;28;20140;-77
2021/09/07 03:02:53;;;;;;;7.60;2.63;;;;;;;;;;4996322;28;20025;-77
2021/09/07 03:05:20;;;;;;;7.63;2.28;;;;;;;;;;5005174;28;20038;-78
2021/09/07 03:07:46;;;;;;;8.10;2.25;;;;;;;;;;4993806;28;20040;-77
2021/09/07 03:10:12;;;;;;;9.85;2.38;;;;;;;;;;4997359;28;20140;-78
2021/09/07 03:12:38;;;;;;;7.53;2.55;;;;;;;;;;4997771;28;20034;-77
2021/09/07 03:15:05;;;;;;;8.68;2.22;;;;;;;;;;5006355;28;20039;-78
2021/09/07 03:17:31;;;;;;;8.57;2.55;;;;;;;;;;4993762;28;20113;-78
2021/09/07 03:19:57;;;;;;;6.75;2.25;;;;;;;;;;4992043;28;20108;-79
2021/09/07 03:22:24;;;;;;;7.82;2.55;;;;;;;;;;4997657;28;20029;-78
2021/09/07 03:24:50;;;;;;;7.65;2.38;;;;;;;;;;4990375;28;20041;-76
2021/09/07 03:27:17;;;;;;;7.80;2.35;;;;;;;;;;4994058;28;20068;-76
2021/09/07 03:29:43;;;;;;;8.63;3.22;;;;;;;;;;4993519;28;20136;-79
2021/09/07 03:32:09;;;;;;;6.85;2.35;;;;;;;;;;4989197;28;20030;-78
2021/09/07 03:34:35;;;;;;;6.90;2.45;;;;;;;;;;4997496;28;20022;-78
2021/09/07 03:37:01;;;;;;;8.60;2.70;;;;;;;;;;4991195;28;20033;-78
2021/09/07 03:39:27;;;;;;;10.85;2.92;;;;;;;;;;4993924;28;20124;-76
2021/09/07 03:41:54;;;;;;;9.60;2.60;;;;;;;;;;4990914;28;20570;-77
2021/09/07 03:44:20;;;;;;;6.82;2.60;;;;;;;;;;5011496;28;20029;-77
2021/09/07 03:46:46;;;;;;;8.38;2.58;;;;;;;;;;4990766;28;20646;-77
2021/09/07 03:49:12;;;;;;;8.63;2.75;;;;;;;;;;4994368;28;20103;-78
2021/09/07 03:51:38;;;;;;;7.40;2.20;;;;;;;;;;4994244;28;20399;-78
2021/09/07 03:54:05;;;;;;;10.38;2.40;;;;;;;;;;4989901;28;20476;-78
2021/09/07 03:56:31;;;;;;;21.20;14.38;;;;;;;;;;4997047;28;20057;-78
2021/09/07 03:58:57;;;;;;;28.65;18.10;;;;;;;;;;4994442;28;20026;-77
2021/09/07 04:01:23;;;;;;;23.40;14.38;;;;;;;;;;5000925;28;20029;-77
2021/09/07 04:03:49;;;;;;;16.55;7.93;;;;;;;;;;4991418;28;20056;-78
2021/09/07 04:06:15;;;;;;;11.82;5.30;;;;;;;;;;4998870;28;20029;-78
2021/09/07 04:08:42;;;;;;;13.10;4.55;;;;;;;;;;4927581;28;2085608;-77
2021/09/07 04:11:08;;;;;;;9.45;3.75;;;;;;;;;;4994814;28;20374;-78
2021/09/07 04:13:34;;;;;;;10.38;4.43;;;;;;;;;;5002183;28;20078;-77
2021/09/07 04:16:00;;;;;;;9.25;3.65;;;;;;;;;;4994658;28;20113;-76
2021/09/07 04:18:26;;;;;;;9.60;3.00;;;;;;;;;;5000389;28;20111;-77
2021/09/07 04:20:52;;;;;;;10.07;3.72;;;;;;;;;;4993645;28;20045;-77
2021/09/07 04:23:19;;;;;;;10.40;3.15;;;;;;;;;;5005484;28;20021;-76
2021/09/07 04:25:45;;;;;;;8.50;2.70;;;;;;;;;;4998919;28;20045;-77
2021/09/07 04:28:11;;;;;;;8.35;3.42;;;;;;;;;;4979162;28;20490;-78
2021/09/07 04:30:38;;;;;;;8.07;2.45;;;;;;;;;;4999169;28;20434;-77
2021/09/07 04:33:04;;;;;;;10.75;4.30;;;;;;;;;;4991721;28;20044;-78
2021/09/07 04:35:30;;;;;;;9.05;3.15;;;;;;;;;;5002768;28;20507;-79
2021/09/07 04:37:56;;;;;;;11.82;4.35;;;;;;;;;;4993733;28;20025;-78
2021/09/07 04:40:22;;;;;;;12.38;5.50;;;;;;;;;;5015421;28;20609;-78
2021/09/07 04:42:49;;;;;;;11.35;4.95;;;;;;;;;;4991323;28;20343;-78
2021/09/07 04:45:15;;;;;;;14.60;4.90;;;;;;;;;;4999182;28;20030;-78
2021/09/07 04:47:41;;;;;;;12.63;4.07;;;;;;;;;;4998286;28;20029;-78
2021/09/07 04:50:08;;;;;;;11.93;4.50;;;;;;;;;;4992368;28;20534;-78
2021/09/07 04:52:34;;;;;;;8.45;3.15;;;;;;;;;;5000323;28;20021;-78
2021/09/07 04:55:00;;;;;;;8.93;3.03;;;;;;;;;;4993730;28;20034;-78
2021/09/07 04:57:26;;;;;;;8.60;2.83;;;;;;;;;;4999793;28;20105;-77
2021/09/07 04:59:52;;;;;;;11.85;4.15;;;;;;;;;;4994727;28;20049;-78
2021/09/07 05:02:18;;;;;;;9.98;3.40;;;;;;;;;;5002089;28;20022;-77
2021/09/07 05:04:45;;;;;;;9.23;3.15;;;;;;;;;;5000284;28;20025;-76
2021/09/07 05:07:12;;;;;;;9.75;3.60;;;;;;;;;;4998027;28;20038;-78
2021/09/07 05:09:39;;;;;;;11.55;4.72;;;;;;;;;;4999346;28;20049;-78
2021/09/07 05:12:06;;;;;;;11.30;4.30;;;;;;;;;;4992714;28;21568;-77
2021/09/07 05:14:32;;;;;;;10.60;3.50;;;;;;;;;;5015018;28;20029;-77
2021/09/07 05:16:58;;;;;;;12.13;4.75;;;;;;;;;;4993086;28;20760;-78
2021/09/07 05:19:24;;;;;;;12.98;3.45;;;;;;;;;;4997544;28;20025;-77
2021/09/07 05:21:50;;;;;;;10.32;3.88;;;;;;;;;;4994121;28;20061;-78
2021/09/07 05:24:16;;;;;;;10.02;4.05;;;;;;;;;;4996733;28;20552;-77
2021/09/07 05:26:43;;;;;;;9.43;3.88;;;;;;;;;;4996076;28;20040;-77
2021/09/07 05:29:09;;;;;;;10.02;3.65;;;;;;;;;;4997281;28;20091;-77
2021/09/07 05:31:35;;;;;;;10.10;3.70;;;;;;;;;;5001421;28;20561;-78
2021/09/07 05:34:01;;;;;;;11.25;4.10;;;;;;;;;;4991945;28;20112;-78
2021/09/07 05:36:27;;;;;;;9.02;3.05;;;;;;;;;;4998934;28;20022;-79
2021/09/07 05:38:53;;;;;;;9.30;3.50;;;;;;;;;;5005650;28;20671;-78
2021/09/07 05:41:20;;;;;;;12.30;3.80;;;;;;;;;;4997477;28;20033;-78
2021/09/07 05:43:46;;;;;;;11.32;3.92;;;;;;;;;;4994375;28;20032;-78
2021/09/07 05:46:12;;;;;;;8.45;3.75;;;;;;;;;;5014560;28;20035;-78
2021/09/07 05:48:38;;;;;;;12.30;3.72;;;;;;;;;;4997169;28;20045;-77
2021/09/07 05:51:05;;;;;;;11.40;3.92;;;;;;;;;;4994542;28;20037;-77
2021/09/07 05:53:31;;;;;;;12.77;4.50;;;;;;;;;;4996298;28;20026;-77
2021/09/07 05:55:57;;;;;;;14.15;4.28;;;;;;;;;;4996892;28;20563;-77
2021/09/07 05:58:24;;;;;;;12.73;3.90;;;;;;;;;;4999602;28;20047;-80
2021/09/07 06:00:50;;;;;;;12.70;3.92;;;;;;;;;;4993364;28;20026;-77
2021/09/07 06:03:16;;;;;;;12.30;4.25;;;;;;;;;;5001263;28;20095;-77
2021/09/07 06:05:42;;;;;;;13.10;3.85;;;;;;;;;;4998368;28;20040;-77
2021/09/07 06:08:08;;;;;;;14.68;4.05;;;;;;;;;;5009122;28;20183;-77
2021/09/07 06:10:34;;;;;;;12.27;4.10;;;;;;;;;;4999201;28;20071;-78
2021/09/07 06:13:01;;;;;;;18.40;4.22;;;;;;;;;;4990537;28;20036;-79
2021/09/07 06:15:27;;;;;;;13.98;4.50;;;;;;;;;;4997618;28;20749;-78
2021/09/07 06:17:53;;;;;;;15.88;4.32;;;;;;;;;;5009209;28;20029;-77
2021/09/07 06:20:19;;;;;;;16.23;4.72;;;;;;;;;;4996801;28;20049;-77
2021/09/07 06:22:45;;;;;;;15.20;4.60;;;;;;;;;;4996571;28;20036;-77
2021/09/07 06:25:12;;;;;;;16.13;4.80;;;;;;;;;;4996992;28;20055;-77
2021/09/07 06:27:38;;;;;;;13.05;4.32;;;;;;;;;;4999124;28;20044;-76
2021/09/07 06:30:06;;;;;;;19.20;4.70;;;;;;;;;;4994872;28;20022;-77
2021/09/07 06:32:32;;;;;;;21.55;4.95;;;;;;;;;;4998921;28;20022;-78
2021/09/07 06:34:59;;;;;;;22.83;4.72;;;;;;;;;;4997172;28;20029;-77
2021/09/07 06:37:26;;;;;;;22.02;5.13;;;;;;;;;;5001102;28;20527;-78
2021/09/07 06:39:52;;;;;;;16.75;4.55;;;;;;;;;;4994871;28;20032;-77
2021/09/07 06:42:18;;;;;;;21.45;5.25;;;;;;;;;;4997215;28;20033;-78
2021/09/07 06:44:44;;;;;;;15.55;4.47;;;;;;;;;;5000638;28;20208;-78
2021/09/07 06:47:11;;;;;;;17.05;4.78;;;;;;;;;;5006754;28;20032;-76
2021/09/07 06:49:37;;;;;;;20.77;4.63;;;;;;;;;;5012387;28;20033;-77
2021/09/07 06:52:03;;;;;;;14.80;4.07;;;;;;;;;;4992572;28;20028;-77
2021/09/07 06:54:30;;;;;;;19.45;4.07;;;;;;;;;;5012602;28;20758;-77
2021/09/07 06:56:56;;;;;;;14.02;4.05;;;;;;;;;;4996553;28;20105;-77
2021/09/07 06:59:22;;;;;;;17.98;3.60;;;;;;;;;;4995994;28;20033;-77
2021/09/07 07:01:48;;;;;;;15.43;3.63;;;;;;;;;;4995461;28;20025;-77
2021/09/07 07:04:14;;;;;;;17.17;3.80;;;;;;;;;;4996061;28;20061;-77
2021/09/07 07:06:40;;;;;;;11.20;3.58;;;;;;;;;;5000292;28;20052;-79
2021/09/07 07:09:07;;;;;;;13.07;4.25;;;;;;;;;;4987848;28;20053;-80
2021/09/07 07:11:33;;;;;;;11.95;4.10;;;;;;;;;;4995420;28;20037;-77
2021/09/07 07:13:59;;;;;;;13.63;3.95;;;;;;;;;;4990474;28;20718;-78
2021/09/07 07:16:25;;;;;;;12.82;3.50;;;;;;;;;;5010023;28;20067;-77
2021/09/07 07:18:52;;;;;;;12.52;3.22;;;;;;;;;;4993511;28;20060;-79
2021/09/07 07:21:18;;;;;;;10.13;3.40;;;;;;;;;;4994937;28;20033;-75
2021/09/07 07:23:44;;;;;;;9.48;3.08;;;;;;;;;;4998369;28;20048;-80
2021/09/07 07:26:10;;;;;;;7.97;3.15;;;;;;;;;;4995191;28;20048;-77
2021/09/07 07:28:36;;;;;;;8.80;2.90;;;;;;;;;;4997498;28;20040;-77
2021/09/07 07:31:03;;;;;;;10.07;2.85;;;;;;;;;;4991409;28;20123;-78
2021/09/07 07:33:29;;;;;;;8.65;3.20;;;;;;;;;;4996989;28;20572;-78
2021/09/07 07:35:55;;;;;;;9.73;3.50;;;;;;;;;;4991792;28;20040;-78
2021/09/07 07:38:21;;;;;;;11.65;3.17;;;;;;;;;;4994211;28;20112;-78
2021/09/07 07:40:47;;;;;;;10.20;3.65;;;;;;;;;;4995500;28;20045;-77
2021/09/07 07:43:14;;;;;;;12.82;4.13;;;;;;;;;;5007874;28;20053;-77
2021/09/07 07:45:43;;;;;;;10.50;3.92;;;;;;;;;;4998765;28;20033;-78
2021/09/07 07:48:09;;;;;;;12.25;4.30;;;;;;;;;;4992635;28;20909;-78
2021/09/07 07:50:36;;;;;;;9.63;3.13;;;;;;;;;;5012195;28;20673;-79
2021/09/07 07:53:03;;;;;;;9.23;3.50;;;;;;;;;;4990308;28;20041;-78
2021/09/07 07:55:29;;;;;;;11.80;3.40;;;;;;;;;;5012295;28;20030;-78
2021/09/07 07:57:55;;;;;;;7.97;2.90;;;;;;;;;;5007778;28;20048;-77
2021/09/07 08:00:22;;;;;;;10.05;2.80;;;;;;;;;;4998993;28;20025;-78
2021/09/07 08:02:48;;;;;;;13.07;3.15;;;;;;;;;;5007960;28;20561;-78
2021/09/07 08:05:14;;;;;;;8.38;3.10;;;;;;;;;;4998606;28;20034;-78
2021/09/07 08:07:40;;;;;;;10.93;3.08;;;;;;;;;;4997839;28;20041;-78
2021/09/07 08:10:06;;;;;;;8.05;2.65;;;;;;;;;;5007700;28;21225;-78
2021/09/07 08:12:32;;;;;;;7.93;2.60;;;;;;;;;;4996968;28;20137;-79
2021/09/07 08:14:59;;;;;;;7.53;2.53;;;;;;;;;;4995420;28;20589;-78
2021/09/07 08:17:25;;;;;;;8.57;2.70;;;;;;;;;;4997731;28;21004;-77
2021/09/07 08:19:51;;;;;;;9.57;2.85;;;;;;;;;;4995099;28;20061;-77
2021/09/07 08:22:17;;;;;;;8.35;2.50;;;;;;;;;;4999895;28;20021;-79
2021/09/07 08:24:45;;;;;;;9.90;2.60;;;;;;;;;;4999917;28;20033;-77
2021/09/07 08:27:11;;;;;;;8.27;2.75;;;;;;;;;;4995834;28;20036;-77
2021/09/07 08:29:38;;;;;;;11.40;3.42;;;;;;;;;;4997978;28;20112;-77
2021/09/07 08:32:04;;;;;;;9.02;3.45;;;;;;;;;;4993761;28;20045;-78
2021/09/07 08:34:30;;;;;;;11.80;3.15;;;;;;;;;;4994144;28;20853;-78
2021/09/07 08:36:57;;;;;;;7.88;2.40;;;;;;;;;;4993074;28;20037;-79
2021/09/07 08:39:23;;;;;;;8.75;3.30;;;;;;;;;;4998910;28;20032;-79
2021/09/07 08:41:49;;;;;;;8.35;3.10;;;;;;;;;;4993748;28;20056;-79
2021/09/07 08:44:19;;;;;;;9.77;4.18;;;;;;;;;;4997798;28;20457;-78
2021/09/07 08:46:45;;;;;;;12.82;6.35;;;;;;;;;;5002380;28;20029;-77
2021/09/07 08:49:13;;;;;;;11.88;5.25;;;;;;;;;;4999136;28;20050;-79
2021/09/07 08:51:39;;;;;;;10.50;4.85;;;;;;;;;;5001207;28;20034;-78
2021/09/07 08:54:05;;;;;;;9.52;3.60;;;;;;;;;;4993699;28;20022;-78
2021/09/07 08:56:31;;;;;;;9.93;3.20;;;;;;;;;;5000116;28;20024;-78
2021/09/07 08:58:57;;;;;;;12.98;6.00;;;;;;;;;;4994619;28;20739;-78
2021/09/07 09:01:25;;;;;;;11.57;4.70;;;;;;;;;;5001099;28;20519;-78
2021/09/07 09:03:51;;;;;;;13.85;5.40;;;;;;;;;;4998052;28;20037;-77
2021/09/07 09:06:27;;;;;;;9.85;3.53;;;;;;;;;;5000524;28;20033;-77
2021/09/07 09:09:03;;;;;;;9.93;3.90;;;;;;;;;;4994268;28;20067;-78
2021/09/07 09:11:29;;;;;;;10.88;3.90;;;;;;;;;;5000321;28;20155;-79
2021/09/07 09:13:56;;;;;;;10.25;3.22;;;;;;;;;;4996692;28;20117;-79
2021/09/07 09:16:22;;;;;;;10.35;3.47;;;;;;;;;;5000633;28;20030;-77
2021/09/07 09:18:48;;;;;;;11.07;4.50;;;;;;;;;;4993548;28;20030;-77
2021/09/07 09:21:27;;;;;;;12.88;4.50;;;;;;;;;;4998719;28;20025;-78
2021/09/07 09:24:12;;;;;;;18.05;4.93;;;;;;;;;;4999028;28;20128;-78
2021/09/07 09:26:57;;;;;;;9.80;3.00;;;;;;;;;;4996255;28;20025;-79
2021/09/07 09:29:25;;;;;;;12.90;4.57;;;;;;;;;;4999329;28;20030;-79
2021/09/07 09:31:52;;;;;;;7.57;2.88;;;;;;;;;;4993212;28;20714;-79
2021/09/07 09:34:19;;;;;;;11.63;4.60;;;;;;;;;;4999221;28;20470;-79
2021/09/07 09:36:55;;;;;;;11.52;4.40;;;;;;;;;;4998815;28;20033;-79
2021/09/07 09:39:40;;;;;;;10.30;3.40;;;;;;;;;;4994951;28;20083;-79
2021/09/07 09:42:06;;;;;;;11.10;4.43;;;;;;;;;;4993826;28;20026;-79
2021/09/07 09:44:32;;;;;;;10.80;2.83;;;;;;;;;;4996967;28;20042;-78
2021/09/07 09:46:58;;;;;;;8.65;2.55;;;;;;;;;;4990817;28;20140;-79
2021/09/07 09:49:27;;;;;;;9.82;3.03;;;;;;;;;;5000278;28;20025;-79
2021/09/07 09:51:57;;;;;;;8.65;3.40;;;;;;;;;;4991657;28;20488;-79
2021/09/07 09:54:25;;;;;;;11.10;2.75;;;;;;;;;;4999699;28;20116;-79
2021/09/07 09:56:52;;;;;;;9.63;3.33;;;;;;;;;;4995438;28;20635;-79
2021/09/07 09:59:19;;;;;;;9.27;2.72;;;;;;;;;;4995763;28;20021;-79
2021/09/07 10:01:47;;;;;;;11.60;4.55;;;;;;;;;;5001357;28;20051;-78
2021/09/07 10:04:14;;;;;;;7.60;2.50;;;;;;;;;;4998585;28;20039;-77
2021/09/07 10:06:41;;;;;;;8.85;2.40;;;;;;;;;;5000802;28;20033;-78
2021/09/07 10:09:08;;;;;;;7.70;2.35;;;;;;;;;;4997162;28;20045;-77
2021/09/07 10:11:34;;;;;;;8.38;2.40;;;;;;;;;;4996683;28;20048;-78
2021/09/07 10:14:03;;;;;;;8.45;2.20;;;;;;;;;;4998955;28;20025;-78
2021/09/07 10:26:45;;;;;;;8.52;3.17;;;;;;;;;;5004422;28;20088;-79
2021/09/07 10:29:19;;;;;;;26.60;4.10;;;;;;;;;;4992787;28;20448;-79
2021/09/07 10:31:50;;;;;;;9.60;2.80;;;;;;;;;;4994457;28;20032;-80
2021/09/07 10:34:17;;;;;;;8.52;2.45;;;;;;;;;;5001594;28;20029;-79
2021/09/07 10:37:04;;;;;;;8.82;1.98;;;;;;;;;;4997522;28;20041;-77
2021/09/07 10:39:33;;;;;;;7.60;1.80;;;;;;;;;;4992688;28;20791;-79
2021/09/07 10:42:03;;;;;;;5.53;1.77;;;;;;;;;;4994916;28;20037;-81
2021/09/07 10:44:31;;;;;;;8.15;1.83;;;;;;;;;;4998202;28;20030;-76
2021/09/07 10:46:58;;;;;;;8.35;2.22;;;;;;;;;;4993482;28;20025;-79
2021/09/07 10:49:28;;;;;;;7.10;1.75;;;;;;;;;;4998160;28;20041;-79
2021/09/07 10:54:33;;;;;;;8.45;2.05;;;;;;;;;;4995508;28;20725;-78
2021/09/07 10:57:01;;;;;;;8.07;2.00;;;;;;;;;;4995710;28;20028;-78
2021/09/07 10:59:50;;;;;;;7.75;2.25;;;;;;;;;;4999877;28;20029;-77
2021/09/07 11:02:49;;;;;;;7.35;2.33;;;;;;;;;;4994800;28;20037;-78
2021/09/07 11:05:18;;;;;;;7.57;1.92;;;;;;;;;;4978586;28;20045;-78
2021/09/07 11:07:47;;;;;;;5.78;1.85;;;;;;;;;;4976071;28;20580;-78
2021/09/07 11:10:15;;;;;;;8.57;2.00;;;;;;;;;;4963679;28;20054;-78
2021/09/07 11:13:02;;;;;;;5.82;1.80;;;;;;;;;;4965235;28;20112;-78
2021/09/07 11:15:30;;;;;;;8.98;2.20;;;;;;;;;;4988409;28;20108;-77
2021/09/07 11:17:59;;;;;;;8.18;2.17;;;;;;;;;;4975127;28;20053;-79
2021/09/07 11:20:30;;;;;;;8.02;2.40;;;;;;;;;;4979140;28;20014;-79
2021/09/07 11:22:57;;;;;;;7.55;2.30;;;;;;;;;;4957708;28;20045;-79
2021/09/07 11:25:24;;;;;;;7.60;2.05;;;;;;;;;;4961634;28;20123;-79
2021/09/07 11:28:00;;;;;;;7.18;2.00;;;;;;;;;;4985936;28;20094;-79
2021/09/07 11:30:36;;;;;;;7.70;1.92;;;;;;;;;;4977036;28;20041;-78
2021/09/07 11:33:04;;;;;;;8.23;1.90;;;;;;;;;;4961484;28;20067;-78
2021/09/07 11:35:31;;;;;;;7.97;2.22;;;;;;;;;;4961853;28;20029;-80
2021/09/07 11:38:01;;;;;;;4.53;1.50;;;;;;;;;;4962695;28;20120;-79
2021/09/07 11:40:27;;;;;;;6.82;1.95;;;;;;;;;;4965395;28;20087;-78
2021/09/07 11:42:54;;;;;;;9.40;1.92;;;;;;;;;;4975494;28;20037;-77
2021/09/07 11:45:28;;;;;;;6.32;1.83;;;;;;;;;;4989781;28;20041;-77
2021/09/07 11:47:56;;;;;;;7.63;1.85;;;;;;;;;;4972902;28;20034;-78
2021/09/07 11:50:23;;;;;;;8.40;2.00;;;;;;;;;;4983604;28;20758;-78
2021/09/07 11:52:50;;;;;;;6.82;1.88;;;;;;;;;;4972344;28;20436;-78
2021/09/07 11:55:36;;;;;;;8.75;1.50;;;;;;;;;;4977152;28;20773;-79
2021/09/07 11:58:02;;;;;;;10.90;1.85;;;;;;;;;;4987841;28;20530;-80
2021/09/07 12:00:29;;;;;;;6.80;1.80;;;;;;;;;;4973067;28;20776;-80
2021/09/07 12:03:11;;;;;;;8.35;1.75;;;;;;;;;;4986570;28;20034;-78
2021/09/07 12:05:53;;;;;;;6.65;1.88;;;;;;;;;;4979305;28;20088;-77
2021/09/07 12:08:19;;;;;;;6.85;1.92;;;;;;;;;;4976566;28;20034;-79
2021/09/07 12:10:55;;;;;;;5.72;1.60;;;;;;;;;;4998010;28;20107;-79
2021/09/07 12:13:22;;;;;;;6.97;1.50;;;;;;;;;;5013015;28;20037;-78
2021/09/07 12:15:49;;;;;;;6.90;2.00;;;;;;;;;;5009011;28;20099;-77
2021/09/07 12:18:34;;;;;;;6.80;1.73;;;;;;;;;;4997453;28;20024;-78
2021/09/07 12:21:00;;;;;;;;;;;;;;;;;;4994448;28;20030;-79
2021/09/07 12:23:33;;;;;;;7.45;1.98;;;;;;;;;;4999699;28;20470;-79
2021/09/07 12:25:59;;;;;;;6.97;1.73;;;;;;;;;;4995519;28;20037;-80
2021/09/07 12:28:25;;;;;;;10.73;2.20;;;;;;;;;;5000489;28;20049;-79
2021/09/07 12:30:51;;;;;;;17.73;3.20;;;;;;;;;;4995521;28;20067;-78
2021/09/07 12:33:19;;;;;;;5.82;1.70;;;;;;;;;;5003214;28;20033;-78
2021/09/07 12:35:51;;;;;;;21.65;3.40;;;;;;;;;;5003618;28;20025;-78
2021/09/07 12:38:22;;;;;;;15.68;3.13;;;;;;;;;;5000149;28;20025;-78
2021/09/07 12:40:52;;;;;;;8.45;1.88;;;;;;;;;;5010970;28;21005;-78
2021/09/07 12:43:20;;;;;;;7.22;1.80;;;;;;;;;;5013797;28;20030;-77
2021/09/07 12:45:47;;;;;;;8.77;1.70;;;;;;;;;;4998723;28;20108;-78
2021/09/07 12:48:13;;;;;;;8.27;1.95;;;;;;;;;;4999998;28;20033;-78
2021/09/07 12:50:40;;;;;;;6.38;1.63;;;;;;;;;;5014956;28;20037;-79
2021/09/07 12:53:08;;;;;;;7.10;1.60;;;;;;;;;;4996328;28;20160;-79
2021/09/07 12:55:37;;;;;;;7.65;1.83;;;;;;;;;;4999849;28;20049;-78
2021/09/07 12:58:07;;;;;;;9.98;1.73;;;;;;;;;;4996714;28;20486;-78
2021/09/07 13:00:33;;;;;;;5.28;1.85;;;;;;;;;;4999692;28;20029;-78
2021/09/07 13:03:00;;;;;;;7.28;1.70;;;;;;;;;;4996157;28;20036;-79
2021/09/07 13:05:26;;;;;;;16.70;2.55;;;;;;;;;;5003747;28;20131;-78
2021/09/07 13:07:52;;;;;;;7.00;1.70;;;;;;;;;;4996113;28;20500;-78
2021/09/07 13:10:18;;;;;;;8.27;1.80;;;;;;;;;;5000347;28;20115;-79
2021/09/07 13:12:44;;;;;;;10.50;1.80;;;;;;;;;;4997966;28;20037;-79
2021/09/07 13:15:11;;;;;;;9.43;2.05;;;;;;;;;;4998318;28;20032;-79
2021/09/07 13:17:37;;;;;;;7.38;1.80;;;;;;;;;;5015463;28;20064;-78
2021/09/07 13:20:04;;;;;;;7.25;1.50;;;;;;;;;;4993269;28;20135;-79
2021/09/07 13:22:30;;;;;;;8.13;1.77;;;;;;;;;;5000958;28;20025;-78
2021/09/07 13:24:56;;;;;;;8.35;2.00;;;;;;;;;;4995088;28;21072;-79
2021/09/07 13:27:24;;;;;;;10.40;1.90;;;;;;;;;;4999242;28;20504;-77
2021/09/07 13:29:50;;;;;;;7.63;1.85;;;;;;;;;;4997956;28;20046;-78
2021/09/07 13:32:16;;;;;;;6.50;1.50;;;;;;;;;;4999314;28;20034;-78
2021/09/07 13:34:43;;;;;;;7.03;1.70;;;;;;;;;;4999171;28;20564;-79
2021/09/07 13:37:09;;;;;;;7.88;1.58;;;;;;;;;;4994482;28;20033;-79
2021/09/07 13:39:35;;;;;;;7.20;1.70;;;;;;;;;;4998322;28;20100;-78
2021/09/07 13:42:01;;;;;;;10.30;1.70;;;;;;;;;;4997768;28;20202;-77
2021/09/07 13:44:27;;;;;;;8.43;1.98;;;;;;;;;;5000074;28;20037;-78
2021/09/07 13:46:54;;;;;;;6.68;1.60;;;;;;;;;;4993147;28;20022;-78
2021/09/07 13:49:20;;;;;;;5.35;1.60;;;;;;;;;;4997517;28;20117;-78
2021/09/07 13:51:46;;;;;;;5.38;1.40;;;;;;;;;;4997581;28;20029;-79
2021/09/07 13:54:12;;;;;;;8.32;1.73;;;;;;;;;;4999825;28;20814;-79
2021/09/07 13:56:38;;;;;;;6.20;1.65;;;;;;;;;;4997719;28;20045;-79
2021/09/07 13:59:05;;;;;;;6.95;2.10;;;;;;;;;;5006384;28;20163;-79
2021/09/07 14:01:31;;;;;;;7.70;1.55;;;;;;;;;;4997648;28;20022;-77
2021/09/07 14:03:57;;;;;;;6.68;1.40;;;;;;;;;;4997090;28;20411;-78
2021/09/07 14:06:23;;;;;;;8.63;1.45;;;;;;;;;;4998781;28;20041;-78
2021/09/07 14:08:49;;;;;;;4.75;1.50;;;;;;;;;;4994515;28;20099;-78
2021/09/07 14:11:16;;;;;;;8.32;1.63;;;;;;;;;;5001990;28;20112;-79
2021/09/07 14:13:43;;;;;;;5.28;1.33;;;;;;;;;;4994067;28;20026;-78
2021/09/07 14:16:10;;;;;;;6.47;1.45;;;;;;;;;;4993622;28;20036;-78
2021/09/07 14:18:36;;;;;;;5.85;1.50;;;;;;;;;;4994647;28;21156;-79
2021/09/07 14:21:02;;;;;;;4.35;1.55;;;;;;;;;;4992388;28;20028;-78
2021/09/07 14:23:29;;;;;;;6.97;1.50;;;;;;;;;;4998987;28;20299;-78
2021/09/07 14:25:55;;;;;;;6.97;1.42;;;;;;;;;;4991191;28;20067;-78
2021/09/07 14:28:22;;;;;;;3.85;1.33;;;;;;;;;;4996583;28;20511;-78
2021/09/07 14:30:49;;;;;;;4.45;1.60;;;;;;;;;;4991454;28;20089;-78
2021/09/07 14:33:15;;;;;;;6.93;1.65;;;;;;;;;;4996821;28;20025;-78
2021/09/07 14:35:41;;;;;;;5.38;1.50;;;;;;;;;;4993591;28;20017;-78
2021/09/07 14:38:08;;;;;;;6.25;1.38;;;;;;;;;;4995447;28;21423;-79
2021/09/07 14:40:34;;;;;;;8.20;1.52;;;;;;;;;;4994171;28;20092;-78
2021/09/07 14:43:00;;;;;;;7.82;1.60;;;;;;;;;;4988826;28;20033;-78
2021/09/07 14:45:26;;;;;;;5.35;1.48;;;;;;;;;;4994712;28;20500;-77
2021/09/07 14:47:54;;;;;;;6.55;1.70;;;;;;;;;;4993806;28;21182;-77
2021/09/07 14:50:21;;;;;;;8.48;2.05;;;;;;;;;;4996901;28;20030;-78
2021/09/07 14:52:47;;;;;;;4.07;1.40;;;;;;;;;;4996861;28;20037;-78